sensor_id;sensor_type;location;lat;lon;timestamp;pressure;altitude;pressure_sealevel;temperature
20848;BMP180;10584;50.854;12.902;2022-12-22T00:05:24;97449.00;;;7.80
20848;BMP180;10584;50.854;12.902;2022-12-22T00:11:23;97443.00;;;7.90
20848;BMP180;10584;50.854;12.902;2022-12-22T00:17:00;97447.00;;;7.80
20848;BMP180;10584;50.854;12.902;2022-12-22T00:22:36;97429.00;;;7.90
20848;BMP180;10584;50.854;12.902;2022-12-22T00:28:15;97425.00;;;8.00
20848;BMP180;10584;50.854;12.902;2022-12-22T00:33:48;97409.00;;;7.90
20848;BMP180;10584;50.854;12.902;2022-12-22T00:39:18;97409.00;;;7.90
20848;BMP180;10584;50.854;12.902;2022-12-22T00:44:39;97410.00;;;7.80
20848;BMP180;10584;50.854;12.902;2022-12-22T00:50:01;97399.00;;;7.90
20848;BMP180;10584;50.854;12.902;2022-12-22T00:55:27;97386.00;;;7.80
20848;BMP180;10584;50.854;12.902;2022-12-22T01:00:49;97386.00;;;7.70
20848;BMP180;10584;50.854;12.902;2022-12-22T01:06:22;97381.00;;;7.60
20848;BMP180;10584;50.854;12.902;2022-12-22T01:12:02;97376.00;;;7.60
20848;BMP180;10584;50.854;12.902;2022-12-22T01:17:51;97371.00;;;7.50
20848;BMP180;10584;50.854;12.902;2022-12-22T01:23:24;97353.00;;;7.50
20848;BMP180;10584;50.854;12.902;2022-12-22T01:29:00;97352.00;;;7.50
20848;BMP180;10584;50.854;12.902;2022-12-22T01:34:25;97348.00;;;7.40
20848;BMP180;10584;50.854;12.902;2022-12-22T01:39:46;97343.00;;;7.50
20848;BMP180;10584;50.854;12.902;2022-12-22T01:50:38;97326.00;;;7.70
20848;BMP180;10584;50.854;12.902;2022-12-22T01:56:25;97312.00;;;7.80
20848;BMP180;10584;50.854;12.902;2022-12-22T02:02:21;97298.00;;;7.90
20848;BMP180;10584;50.854;12.902;2022-12-22T02:08:22;97295.00;;;8.00
20848;BMP180;10584;50.854;12.902;2022-12-22T02:13:59;97283.00;;;8.10
20848;BMP180;10584;50.854;12.902;2022-12-22T02:25:15;97277.00;;;8.20
20848;BMP180;10584;50.854;12.902;2022-12-22T02:30:37;97266.00;;;8.20
20848;BMP180;10584;50.854;12.902;2022-12-22T02:36:19;97262.00;;;8.20
20848;BMP180;10584;50.854;12.902;2022-12-22T02:42:30;97268.00;;;8.30
20848;BMP180;10584;50.854;12.902;2022-12-22T02:48:31;97253.00;;;8.20
20848;BMP180;10584;50.854;12.902;2022-12-22T02:54:07;97242.00;;;8.20
20848;BMP180;10584;50.854;12.902;2022-12-22T02:59:33;97218.00;;;8.20
20848;BMP180;10584;50.854;12.902;2022-12-22T03:04:58;97217.00;;;8.20
20848;BMP180;10584;50.854;12.902;2022-12-22T03:10:32;97212.00;;;8.20
20848;BMP180;10584;50.854;12.902;2022-12-22T03:16:19;97224.00;;;8.30
20848;BMP180;10584;50.854;12.902;2022-12-22T03:22:04;97202.00;;;8.40
20848;BMP180;10584;50.854;12.902;2022-12-22T03:27:37;97199.00;;;8.40
20848;BMP180;10584;50.854;12.902;2022-12-22T03:32:58;97199.00;;;8.40
20848;BMP180;10584;50.854;12.902;2022-12-22T03:38:15;97196.00;;;8.40
20848;BMP180;10584;50.854;12.902;2022-12-22T03:43:32;97189.00;;;8.50
20848;BMP180;10584;50.854;12.902;2022-12-22T03:49:06;97168.00;;;8.40
20848;BMP180;10584;50.854;12.902;2022-12-22T03:54:24;97153.00;;;8.60
20848;BMP180;10584;50.854;12.902;2022-12-22T03:59:33;97160.00;;;8.50
20848;BMP180;10584;50.854;12.902;2022-12-22T04:04:43;97148.00;;;8.60
20848;BMP180;10584;50.854;12.902;2022-12-22T04:09:56;97146.00;;;8.60
20848;BMP180;10584;50.854;12.902;2022-12-22T04:15:17;97143.00;;;8.60
20848;BMP180;10584;50.854;12.902;2022-12-22T04:20:22;97147.00;;;8.60
20848;BMP180;10584;50.854;12.902;2022-12-22T04:25:27;97141.00;;;8.60
20848;BMP180;10584;50.854;12.902;2022-12-22T04:30:31;97128.00;;;8.70
20848;BMP180;10584;50.854;12.902;2022-12-22T04:35:34;97131.00;;;8.70
20848;BMP180;10584;50.854;12.902;2022-12-22T04:40:37;97134.00;;;8.60
20848;BMP180;10584;50.854;12.902;2022-12-22T04:45:40;97125.00;;;8.60
20848;BMP180;10584;50.854;12.902;2022-12-22T04:50:43;97134.00;;;8.50
20848;BMP180;10584;50.854;12.902;2022-12-22T04:55:48;97132.00;;;8.50
20848;BMP180;10584;50.854;12.902;2022-12-22T05:01:06;97116.00;;;8.60
20848;BMP180;10584;50.854;12.902;2022-12-22T05:06:24;97109.00;;;8.60
20848;BMP180;10584;50.854;12.902;2022-12-22T05:12:05;97098.00;;;8.50
20848;BMP180;10584;50.854;12.902;2022-12-22T05:17:43;97096.00;;;8.50
20848;BMP180;10584;50.854;12.902;2022-12-22T05:23:13;97078.00;;;8.60
20848;BMP180;10584;50.854;12.902;2022-12-22T05:28:37;97077.00;;;8.50
20848;BMP180;10584;50.854;12.902;2022-12-22T05:33:55;97081.00;;;8.50
20848;BMP180;10584;50.854;12.902;2022-12-22T05:39:14;97066.00;;;8.30
20848;BMP180;10584;50.854;12.902;2022-12-22T05:44:25;97071.00;;;8.40
20848;BMP180;10584;50.854;12.902;2022-12-22T05:49:35;97063.00;;;8.40
20848;BMP180;10584;50.854;12.902;2022-12-22T05:54:44;97061.00;;;8.40
20848;BMP180;10584;50.854;12.902;2022-12-22T05:59:47;97080.00;;;8.50
20848;BMP180;10584;50.854;12.902;2022-12-22T06:04:55;97066.00;;;8.50
20848;BMP180;10584;50.854;12.902;2022-12-22T06:10:10;97075.00;;;8.50
20848;BMP180;10584;50.854;12.902;2022-12-22T06:15:15;97071.00;;;8.50
20848;BMP180;10584;50.854;12.902;2022-12-22T06:20:18;97053.00;;;8.50
20848;BMP180;10584;50.854;12.902;2022-12-22T06:25:21;97049.00;;;8.60
20848;BMP180;10584;50.854;12.902;2022-12-22T06:30:24;97058.00;;;8.50
20848;BMP180;10584;50.854;12.902;2022-12-22T06:35:36;97042.00;;;8.60
20848;BMP180;10584;50.854;12.902;2022-12-22T06:40:39;97030.00;;;8.50
20848;BMP180;10584;50.854;12.902;2022-12-22T06:45:42;97030.00;;;8.60
20848;BMP180;10584;50.854;12.902;2022-12-22T06:50:46;97022.00;;;8.60
20848;BMP180;10584;50.854;12.902;2022-12-22T06:56:11;97015.00;;;8.60
20848;BMP180;10584;50.854;12.902;2022-12-22T07:02:12;97018.00;;;8.60
20848;BMP180;10584;50.854;12.902;2022-12-22T07:07:31;97009.00;;;8.60
20848;BMP180;10584;50.854;12.902;2022-12-22T07:12:45;97011.00;;;8.70
20848;BMP180;10584;50.854;12.902;2022-12-22T07:18:07;97019.00;;;8.70
20848;BMP180;10584;50.854;12.902;2022-12-22T07:23:26;97006.00;;;8.80
20848;BMP180;10584;50.854;12.902;2022-12-22T07:28:56;97002.00;;;8.70
20848;BMP180;10584;50.854;12.902;2022-12-22T07:34:12;96989.00;;;8.70
20848;BMP180;10584;50.854;12.902;2022-12-22T07:39:30;96993.00;;;8.60
20848;BMP180;10584;50.854;12.902;2022-12-22T07:44:38;96992.00;;;8.70
20848;BMP180;10584;50.854;12.902;2022-12-22T07:49:42;96985.00;;;8.80
20848;BMP180;10584;50.854;12.902;2022-12-22T07:55:04;96974.00;;;8.80
20848;BMP180;10584;50.854;12.902;2022-12-22T08:00:07;96970.00;;;8.80
20848;BMP180;10584;50.854;12.902;2022-12-22T08:05:27;96968.00;;;8.90
20848;BMP180;10584;50.854;12.902;2022-12-22T08:10:45;96957.00;;;8.90
20848;BMP180;10584;50.854;12.902;2022-12-22T08:16:01;96948.00;;;9.00
20848;BMP180;10584;50.854;12.902;2022-12-22T08:21:33;96953.00;;;9.00
20848;BMP180;10584;50.854;12.902;2022-12-22T08:26:47;96957.00;;;9.10
20848;BMP180;10584;50.854;12.902;2022-12-22T08:32:33;96958.00;;;9.20
20848;BMP180;10584;50.854;12.902;2022-12-22T08:38:08;96953.00;;;9.30
20848;BMP180;10584;50.854;12.902;2022-12-22T08:43:12;96940.00;;;9.50
20848;BMP180;10584;50.854;12.902;2022-12-22T08:48:15;96945.00;;;9.50
20848;BMP180;10584;50.854;12.902;2022-12-22T08:53:29;96929.00;;;9.60
20848;BMP180;10584;50.854;12.902;2022-12-22T08:59:12;96939.00;;;9.60
20848;BMP180;10584;50.854;12.902;2022-12-22T09:04:31;96929.00;;;9.70
20848;BMP180;10584;50.854;12.902;2022-12-22T09:09:54;96915.00;;;9.70
20848;BMP180;10584;50.854;12.902;2022-12-22T09:14:59;96929.00;;;9.70
20848;BMP180;10584;50.854;12.902;2022-12-22T09:20:03;96916.00;;;9.80
20848;BMP180;10584;50.854;12.902;2022-12-22T09:25:06;96922.00;;;9.70
20848;BMP180;10584;50.854;12.902;2022-12-22T09:30:10;96927.00;;;9.80
20848;BMP180;10584;50.854;12.902;2022-12-22T09:35:13;96922.00;;;9.80
20848;BMP180;10584;50.854;12.902;2022-12-22T09:40:16;96910.00;;;9.80
20848;BMP180;10584;50.854;12.902;2022-12-22T09:45:23;96900.00;;;9.80
20848;BMP180;10584;50.854;12.902;2022-12-22T09:50:27;96888.00;;;9.90
20848;BMP180;10584;50.854;12.902;2022-12-22T10:00:41;96863.00;;;9.90
20848;BMP180;10584;50.854;12.902;2022-12-22T10:06:20;96887.00;;;10.00
20848;BMP180;10584;50.854;12.902;2022-12-22T10:11:39;96878.00;;;9.90
20848;BMP180;10584;50.854;12.902;2022-12-22T10:17:33;96874.00;;;9.80
20848;BMP180;10584;50.854;12.902;2022-12-22T10:23:04;96871.00;;;9.60
20848;BMP180;10584;50.854;12.902;2022-12-22T10:28:33;96872.00;;;9.60
20848;BMP180;10584;50.854;12.902;2022-12-22T10:34:14;96862.00;;;9.50
20848;BMP180;10584;50.854;12.902;2022-12-22T10:39:28;96860.00;;;9.50
20848;BMP180;10584;50.854;12.902;2022-12-22T10:44:39;96850.00;;;9.50
20848;BMP180;10584;50.854;12.902;2022-12-22T10:49:50;96855.00;;;9.60
20848;BMP180;10584;50.854;12.902;2022-12-22T10:55:17;96858.00;;;9.80
20848;BMP180;10584;50.854;12.902;2022-12-22T11:00:29;96845.00;;;9.90
20848;BMP180;10584;50.854;12.902;2022-12-22T11:05:37;96833.00;;;10.00
20848;BMP180;10584;50.854;12.902;2022-12-22T11:11:08;96842.00;;;10.10
20848;BMP180;10584;50.854;12.902;2022-12-22T11:16:46;96831.00;;;10.30
20848;BMP180;10584;50.854;12.902;2022-12-22T11:22:32;96827.00;;;10.40
20848;BMP180;10584;50.854;12.902;2022-12-22T11:28:15;96816.00;;;10.60
20848;BMP180;10584;50.854;12.902;2022-12-22T11:50:18;96814.00;;;11.00
20848;BMP180;10584;50.854;12.902;2022-12-22T12:07:28;96803.00;;;10.90
20848;BMP180;10584;50.854;12.902;2022-12-22T12:12:56;96807.00;;;10.80
20848;BMP180;10584;50.854;12.902;2022-12-22T12:23:56;96793.00;;;10.80
20848;BMP180;10584;50.854;12.902;2022-12-22T12:29:19;96803.00;;;10.80
20848;BMP180;10584;50.854;12.902;2022-12-22T12:34:35;96805.00;;;10.90
20848;BMP180;10584;50.854;12.902;2022-12-22T12:40:09;96800.00;;;10.70
20848;BMP180;10584;50.854;12.902;2022-12-22T12:45:41;96798.00;;;10.70
20848;BMP180;10584;50.854;12.902;2022-12-22T12:50:45;96802.00;;;10.80
20848;BMP180;10584;50.854;12.902;2022-12-22T12:56:12;96796.00;;;10.70
20848;BMP180;10584;50.854;12.902;2022-12-22T13:07:04;96796.00;;;10.70
20848;BMP180;10584;50.854;12.902;2022-12-22T13:18:02;96797.00;;;10.50
20848;BMP180;10584;50.854;12.902;2022-12-22T13:23:14;96806.00;;;10.40
20848;BMP180;10584;50.854;12.902;2022-12-22T13:28:32;96788.00;;;10.20
20848;BMP180;10584;50.854;12.902;2022-12-22T13:34:09;96807.00;;;10.30
20848;BMP180;10584;50.854;12.902;2022-12-22T13:39:22;96812.00;;;10.40
20848;BMP180;10584;50.854;12.902;2022-12-22T13:44:32;96825.00;;;10.40
20848;BMP180;10584;50.854;12.902;2022-12-22T13:49:35;96816.00;;;10.30
20848;BMP180;10584;50.854;12.902;2022-12-22T13:55:00;96830.00;;;10.30
20848;BMP180;10584;50.854;12.902;2022-12-22T14:00:03;96840.00;;;10.30
20848;BMP180;10584;50.854;12.902;2022-12-22T14:05:20;96847.00;;;10.20
20848;BMP180;10584;50.854;12.902;2022-12-22T14:10:42;96841.00;;;10.20
20848;BMP180;10584;50.854;12.902;2022-12-22T14:16:11;96844.00;;;10.20
20848;BMP180;10584;50.854;12.902;2022-12-22T14:21:40;96863.00;;;10.10
20848;BMP180;10584;50.854;12.902;2022-12-22T14:27:05;96855.00;;;10.10
20848;BMP180;10584;50.854;12.902;2022-12-22T14:32:42;96873.00;;;10.10
20848;BMP180;10584;50.854;12.902;2022-12-22T14:43:36;96927.00;;;9.60
20848;BMP180;10584;50.854;12.902;2022-12-22T14:48:50;96919.00;;;9.30
20848;BMP180;10584;50.854;12.902;2022-12-22T14:54:04;96931.00;;;9.20
20848;BMP180;10584;50.854;12.902;2022-12-22T14:59:26;96950.00;;;9.10
20848;BMP180;10584;50.854;12.902;2022-12-22T15:04:37;96944.00;;;9.10
20848;BMP180;10584;50.854;12.902;2022-12-22T15:09:49;96960.00;;;9.00
20848;BMP180;10584;50.854;12.902;2022-12-22T15:15:15;96990.00;;;8.90
20848;BMP180;10584;50.854;12.902;2022-12-22T15:20:23;96992.00;;;8.70
20848;BMP180;10584;50.854;12.902;2022-12-22T15:25:28;96998.00;;;8.90
20848;BMP180;10584;50.854;12.902;2022-12-22T15:30:31;97013.00;;;8.70
20848;BMP180;10584;50.854;12.902;2022-12-22T15:35:34;97027.00;;;8.70
20848;BMP180;10584;50.854;12.902;2022-12-22T15:40:37;97032.00;;;8.60
20848;BMP180;10584;50.854;12.902;2022-12-22T15:45:41;97050.00;;;8.50
20848;BMP180;10584;50.854;12.902;2022-12-22T15:50:45;97061.00;;;8.70
20848;BMP180;10584;50.854;12.902;2022-12-22T15:55:56;97065.00;;;8.60
20848;BMP180;10584;50.854;12.902;2022-12-22T16:01:28;97086.00;;;8.60
20848;BMP180;10584;50.854;12.902;2022-12-22T16:06:52;97098.00;;;8.60
20848;BMP180;10584;50.854;12.902;2022-12-22T16:12:08;97101.00;;;8.60
20848;BMP180;10584;50.854;12.902;2022-12-22T16:17:36;97115.00;;;8.70
20848;BMP180;10584;50.854;12.902;2022-12-22T16:22:56;97123.00;;;8.60
20848;BMP180;10584;50.854;12.902;2022-12-22T16:28:21;97125.00;;;8.60
20848;BMP180;10584;50.854;12.902;2022-12-22T16:33:43;97137.00;;;8.60
20848;BMP180;10584;50.854;12.902;2022-12-22T16:39:02;97137.00;;;8.50
20848;BMP180;10584;50.854;12.902;2022-12-22T16:44:35;97150.00;;;8.50
20848;BMP180;10584;50.854;12.902;2022-12-22T16:49:42;97161.00;;;8.50
20848;BMP180;10584;50.854;12.902;2022-12-22T16:54:46;97165.00;;;8.50
20848;BMP180;10584;50.854;12.902;2022-12-22T16:59:54;97175.00;;;8.60
20848;BMP180;10584;50.854;12.902;2022-12-22T17:05:00;97175.00;;;8.60
20848;BMP180;10584;50.854;12.902;2022-12-22T17:10:20;97176.00;;;8.70
20848;BMP180;10584;50.854;12.902;2022-12-22T17:15:40;97183.00;;;8.60
20848;BMP180;10584;50.854;12.902;2022-12-22T17:21:09;97184.00;;;8.60
20848;BMP180;10584;50.854;12.902;2022-12-22T17:26:31;97192.00;;;8.70
20848;BMP180;10584;50.854;12.902;2022-12-22T17:31:46;97186.00;;;8.70
20848;BMP180;10584;50.854;12.902;2022-12-22T17:37:21;97205.00;;;8.70
20848;BMP180;10584;50.854;12.902;2022-12-22T17:42:41;97199.00;;;8.50
20848;BMP180;10584;50.854;12.902;2022-12-22T17:47:56;97206.00;;;8.50
20848;BMP180;10584;50.854;12.902;2022-12-22T17:53:20;97197.00;;;8.60
20848;BMP180;10584;50.854;12.902;2022-12-22T17:58:48;97186.00;;;8.40
20848;BMP180;10584;50.854;12.902;2022-12-22T18:04:17;97182.00;;;8.40
20848;BMP180;10584;50.854;12.902;2022-12-22T18:09:33;97188.00;;;8.50
20848;BMP180;10584;50.854;12.902;2022-12-22T18:14:36;97191.00;;;8.40
20848;BMP180;10584;50.854;12.902;2022-12-22T18:19:39;97192.00;;;8.40
20848;BMP180;10584;50.854;12.902;2022-12-22T18:24:43;97180.00;;;8.40
20848;BMP180;10584;50.854;12.902;2022-12-22T18:29:46;97182.00;;;8.50
20848;BMP180;10584;50.854;12.902;2022-12-22T18:34:49;97182.00;;;8.60
20848;BMP180;10584;50.854;12.902;2022-12-22T18:39:52;97191.00;;;8.50
20848;BMP180;10584;50.854;12.902;2022-12-22T18:44:55;97181.00;;;8.60
20848;BMP180;10584;50.854;12.902;2022-12-22T18:49:58;97183.00;;;8.60
20848;BMP180;10584;50.854;12.902;2022-12-22T18:55:23;97181.00;;;8.70
20848;BMP180;10584;50.854;12.902;2022-12-22T19:00:29;97193.00;;;8.70
20848;BMP180;10584;50.854;12.902;2022-12-22T19:05:36;97182.00;;;8.60
20848;BMP180;10584;50.854;12.902;2022-12-22T19:11:12;97175.00;;;8.70
20848;BMP180;10584;50.854;12.902;2022-12-22T19:16:43;97181.00;;;8.60
20848;BMP180;10584;50.854;12.902;2022-12-22T19:22:15;97190.00;;;8.60
20848;BMP180;10584;50.854;12.902;2022-12-22T19:27:44;97186.00;;;8.50
20848;BMP180;10584;50.854;12.902;2022-12-22T19:33:08;97174.00;;;8.60
20848;BMP180;10584;50.854;12.902;2022-12-22T19:38:30;97165.00;;;8.60
20848;BMP180;10584;50.854;12.902;2022-12-22T19:43:36;97176.00;;;8.60
20848;BMP180;10584;50.854;12.902;2022-12-22T19:48:42;97176.00;;;8.50
20848;BMP180;10584;50.854;12.902;2022-12-22T19:54:00;97177.00;;;8.30
20848;BMP180;10584;50.854;12.902;2022-12-22T19:59:28;97182.00;;;8.20
20848;BMP180;10584;50.854;12.902;2022-12-22T20:04:49;97181.00;;;8.10
20848;BMP180;10584;50.854;12.902;2022-12-22T20:10:11;97168.00;;;8.10
20848;BMP180;10584;50.854;12.902;2022-12-22T20:15:36;97162.00;;;7.90
20848;BMP180;10584;50.854;12.902;2022-12-22T20:21:21;97157.00;;;7.90
20848;BMP180;10584;50.854;12.902;2022-12-22T20:26:40;97158.00;;;7.80
20848;BMP180;10584;50.854;12.902;2022-12-22T20:32:00;97163.00;;;7.60
20848;BMP180;10584;50.854;12.902;2022-12-22T20:37:23;97173.00;;;7.60
20848;BMP180;10584;50.854;12.902;2022-12-22T20:42:43;97169.00;;;7.40
20848;BMP180;10584;50.854;12.902;2022-12-22T20:48:08;97159.00;;;7.40
20848;BMP180;10584;50.854;12.902;2022-12-22T20:53:37;97151.00;;;7.40
20848;BMP180;10584;50.854;12.902;2022-12-22T20:59:05;97154.00;;;7.30
20848;BMP180;10584;50.854;12.902;2022-12-22T21:04:17;97149.00;;;7.40
20848;BMP180;10584;50.854;12.902;2022-12-22T21:09:21;97140.00;;;7.30
20848;BMP180;10584;50.854;12.902;2022-12-22T21:14:25;97144.00;;;7.30
20848;BMP180;10584;50.854;12.902;2022-12-22T21:19:34;97150.00;;;7.20
20848;BMP180;10584;50.854;12.902;2022-12-22T21:24:37;97148.00;;;7.10
20848;BMP180;10584;50.854;12.902;2022-12-22T21:29:40;97130.00;;;7.20
20848;BMP180;10584;50.854;12.902;2022-12-22T21:34:44;97135.00;;;7.20
20848;BMP180;10584;50.854;12.902;2022-12-22T21:39:49;97132.00;;;7.30
20848;BMP180;10584;50.854;12.902;2022-12-22T21:44:52;97128.00;;;7.30
20848;BMP180;10584;50.854;12.902;2022-12-22T21:49:55;97122.00;;;7.30
20848;BMP180;10584;50.854;12.902;2022-12-22T21:54:58;97107.00;;;7.40
20848;BMP180;10584;50.854;12.902;2022-12-22T22:00:11;97105.00;;;7.40
20848;BMP180;10584;50.854;12.902;2022-12-22T22:05:35;97103.00;;;7.40
20848;BMP180;10584;50.854;12.902;2022-12-22T22:10:58;97104.00;;;7.50
20848;BMP180;10584;50.854;12.902;2022-12-22T22:16:17;97095.00;;;7.50
20848;BMP180;10584;50.854;12.902;2022-12-22T22:21:41;97102.00;;;7.50
20848;BMP180;10584;50.854;12.902;2022-12-22T22:27:07;97082.00;;;7.40
20848;BMP180;10584;50.854;12.902;2022-12-22T22:32:25;97078.00;;;7.40
20848;BMP180;10584;50.854;12.902;2022-12-22T22:37:43;97065.00;;;7.40
20848;BMP180;10584;50.854;12.902;2022-12-22T22:43:05;97051.00;;;7.50
20848;BMP180;10584;50.854;12.902;2022-12-22T22:48:20;97053.00;;;7.60
20848;BMP180;10584;50.854;12.902;2022-12-22T22:53:34;97053.00;;;7.60
20848;BMP180;10584;50.854;12.902;2022-12-22T22:58:42;97042.00;;;7.70
20848;BMP180;10584;50.854;12.902;2022-12-22T23:04:06;97038.00;;;7.80
20848;BMP180;10584;50.854;12.902;2022-12-22T23:09:17;97018.00;;;7.80
20848;BMP180;10584;50.854;12.902;2022-12-22T23:14:35;97013.00;;;7.80
20848;BMP180;10584;50.854;12.902;2022-12-22T23:19:38;97016.00;;;7.80
20848;BMP180;10584;50.854;12.902;2022-12-22T23:24:41;97012.00;;;7.90
20848;BMP180;10584;50.854;12.902;2022-12-22T23:29:44;97006.00;;;8.00
20848;BMP180;10584;50.854;12.902;2022-12-22T23:34:47;97001.00;;;7.90
20848;BMP180;10584;50.854;12.902;2022-12-22T23:39:50;96996.00;;;7.90
20848;BMP180;10584;50.854;12.902;2022-12-22T23:44:54;96993.00;;;7.90
20848;BMP180;10584;50.854;12.902;2022-12-22T23:50:00;96983.00;;;7.80
20848;BMP180;10584;50.854;12.902;2022-12-22T23:55:03;96976.00;;;7.80
